Time;durP1;ratioP1;P1;durP2;ratioP2;P2;SDS_P1;SDS_P2;PMS_P1;PMS_P2;Temp;Humidity;BMP_temperature;BMP_pressure;BME280_temperature;BME280_humidity;BME280_pressure;Samples;Min_cycle;Max_cycle;Signal;HPM_P1;HPM_P2
2021/12/22 00:01:25;;;;;;;80.60;17.45;;;;;;;;;;5110588;28;20210;-95
2021/12/22 00:03:53;;;;;;;80.28;17.58;;;;;;;;;;5111522;28;20189;-95
2021/12/22 00:06:22;;;;;;;87.80;18.67;;;;;;;;;;5111080;28;20211;-94
2021/12/22 00:08:51;;;;;;;80.07;17.50;;;;;;;;;;5111012;28;20217;-96
2021/12/22 00:11:18;;;;;;;80.70;17.55;;;;;;;;;;5109718;28;20212;-95
2021/12/22 00:13:44;;;;;;;80.68;17.48;;;;;;;;;;5112753;28;20198;-95
2021/12/22 00:16:11;;;;;;;81.40;16.85;;;;;;;;;;5099932;28;20194;-96
2021/12/22 00:18:38;;;;;;;77.35;16.85;;;;;;;;;;5112911;28;20287;-94
2021/12/22 00:21:05;;;;;;;85.18;18.23;;;;;;;;;;5113894;28;20211;-96
2021/12/22 00:23:31;;;;;;;82.90;18.13;;;;;;;;;;5116714;28;20198;-95
2021/12/22 00:26:00;;;;;;;87.15;19.52;;;;;;;;;;5119661;28;20182;-95
2021/12/22 00:28:27;;;;;;;88.53;18.90;;;;;;;;;;5099219;28;20198;-95
2021/12/22 00:30:54;;;;;;;84.05;17.98;;;;;;;;;;5113998;28;20650;-95
2021/12/22 00:33:21;;;;;;;79.97;18.00;;;;;;;;;;5112835;28;20218;-94
2021/12/22 00:35:47;;;;;;;83.25;19.48;;;;;;;;;;5112962;28;20267;-94
2021/12/22 00:38:15;;;;;;;84.43;19.23;;;;;;;;;;5112122;28;20774;-95
2021/12/22 00:40:42;;;;;;;87.35;19.13;;;;;;;;;;5112013;28;20218;-95
2021/12/22 00:43:10;;;;;;;82.10;17.85;;;;;;;;;;5111592;28;20208;-95
2021/12/22 00:45:37;;;;;;;87.60;19.65;;;;;;;;;;5110317;28;20254;-94
2021/12/22 00:48:05;;;;;;;85.88;19.23;;;;;;;;;;5110954;28;20222;-95
2021/12/22 00:50:32;;;;;;;86.57;20.10;;;;;;;;;;5112669;28;20197;-94
2021/12/22 00:52:58;;;;;;;83.07;18.98;;;;;;;;;;5111261;28;20222;-95
2021/12/22 00:55:25;;;;;;;82.65;17.80;;;;;;;;;;5110444;28;20190;-95
2021/12/22 00:57:52;;;;;;;84.78;18.98;;;;;;;;;;5109625;28;20198;-94
2021/12/22 01:00:21;;;;;;;82.05;17.27;;;;;;;;;;5108799;28;20186;-95
2021/12/22 01:02:48;;;;;;;79.65;17.02;;;;;;;;;;5110670;28;20799;-94
2021/12/22 01:05:15;;;;;;;78.97;17.45;;;;;;;;;;5112040;28;20205;-95
2021/12/22 01:07:42;;;;;;;87.25;18.52;;;;;;;;;;5111131;28;20583;-94
2021/12/22 01:10:10;;;;;;;79.78;16.58;;;;;;;;;;5109607;28;20564;-95
2021/12/22 01:12:37;;;;;;;80.68;18.02;;;;;;;;;;5110235;28;20226;-94
2021/12/22 01:15:04;;;;;;;81.18;16.85;;;;;;;;;;5110468;28;20198;-95
2021/12/22 01:17:38;;;;;;;83.15;17.38;;;;;;;;;;5110338;28;20197;-95
2021/12/22 01:20:10;;;;;;;82.45;16.83;;;;;;;;;;5109935;28;20197;-94
2021/12/22 01:22:47;;;;;;;77.63;16.30;;;;;;;;;;5111470;28;20194;-94
2021/12/22 01:25:16;;;;;;;80.93;17.08;;;;;;;;;;5114711;28;20249;-94
2021/12/22 01:27:44;;;;;;;81.75;16.48;;;;;;;;;;5111954;28;20197;-94
2021/12/22 01:30:11;;;;;;;79.32;16.85;;;;;;;;;;5110088;28;20200;-94
2021/12/22 01:32:40;;;;;;;80.20;16.90;;;;;;;;;;5112795;28;20216;-94
2021/12/22 01:35:08;;;;;;;81.68;17.90;;;;;;;;;;5114361;28;20213;-93
2021/12/22 01:37:35;;;;;;;85.20;16.98;;;;;;;;;;5112857;28;20231;-94
2021/12/22 01:40:02;;;;;;;80.60;17.15;;;;;;;;;;5112577;28;20240;-93
2021/12/22 01:42:28;;;;;;;82.88;18.45;;;;;;;;;;5112829;28;20203;-94
2021/12/22 01:45:14;;;;;;;79.00;16.42;;;;;;;;;;5112321;28;20884;-95
2021/12/22 01:50:32;;;;;;;78.22;16.40;;;;;;;;;;5113521;28;20243;-94
2021/12/22 01:53:00;;;;;;;78.78;17.00;;;;;;;;;;5113539;28;20268;-94
2021/12/22 01:55:33;;;;;;;78.80;16.15;;;;;;;;;;5113240;28;20203;-95
2021/12/22 01:58:01;;;;;;;82.72;16.83;;;;;;;;;;5113594;28;20255;-96
2021/12/22 02:00:28;;;;;;;78.00;16.25;;;;;;;;;;5113672;28;20209;-94
2021/12/22 02:02:56;;;;;;;76.95;16.48;;;;;;;;;;5113265;28;21000;-95
2021/12/22 02:05:23;;;;;;;78.57;15.85;;;;;;;;;;5112800;28;20202;-95
2021/12/22 02:07:55;;;;;;;78.78;16.23;;;;;;;;;;5113713;28;20680;-95
2021/12/22 02:10:35;;;;;;;77.60;16.23;;;;;;;;;;5112546;28;20225;-95
2021/12/22 02:13:02;;;;;;;75.10;15.30;;;;;;;;;;5112369;28;20223;-96
2021/12/22 02:15:33;;;;;;;78.40;15.38;;;;;;;;;;5113586;28;20920;-95
2021/12/22 02:18:02;;;;;;;80.72;15.20;;;;;;;;;;5113130;28;20957;-96
2021/12/22 02:20:30;;;;;;;76.13;14.90;;;;;;;;;;5112512;28;20225;-94
2021/12/22 02:22:57;;;;;;;79.57;14.85;;;;;;;;;;5112688;28;20207;-95
2021/12/22 02:25:33;;;;;;;79.55;15.57;;;;;;;;;;5112457;28;20190;-95
2021/12/22 02:28:01;;;;;;;80.40;15.52;;;;;;;;;;5112634;28;20196;-96
2021/12/22 02:30:29;;;;;;;77.45;15.10;;;;;;;;;;5112370;28;20193;-96
2021/12/22 02:33:23;;;;;;;78.40;15.02;;;;;;;;;;5112971;28;20218;-96
2021/12/22 02:36:07;;;;;;;79.28;15.50;;;;;;;;;;5122873;28;20192;-95
2021/12/22 02:38:34;;;;;;;77.32;16.25;;;;;;;;;;5120038;28;20208;-96
2021/12/22 02:41:01;;;;;;;78.07;14.85;;;;;;;;;;5114247;28;20209;-95
2021/12/22 02:43:32;;;;;;;74.90;15.18;;;;;;;;;;5113908;28;20204;-96
2021/12/22 02:45:58;;;;;;;76.32;14.70;;;;;;;;;;5111596;28;20257;-96
2021/12/22 02:48:28;;;;;;;96.03;16.08;;;;;;;;;;5112350;28;20316;-96
2021/12/22 02:50:57;;;;;;;78.93;15.15;;;;;;;;;;5115512;28;20203;-96
2021/12/22 02:53:29;;;;;;;77.43;15.13;;;;;;;;;;5116979;28;20229;-96
2021/12/22 02:56:01;;;;;;;79.43;16.05;;;;;;;;;;5118690;28;20330;-96
2021/12/22 02:58:35;;;;;;;76.75;14.75;;;;;;;;;;5118250;28;20220;-96
2021/12/22 03:01:22;;;;;;;80.28;15.30;;;;;;;;;;5118946;28;20231;-96
2021/12/22 03:03:56;;;;;;;81.32;15.73;;;;;;;;;;5120226;28;20200;-96
2021/12/22 03:06:32;;;;;;;77.93;15.95;;;;;;;;;;5116401;28;20200;-96
2021/12/22 03:09:05;;;;;;;75.50;14.98;;;;;;;;;;5118197;28;20319;-96
2021/12/22 03:11:33;;;;;;;81.32;16.95;;;;;;;;;;5118181;28;20266;-96
2021/12/22 03:14:00;;;;;;;80.97;16.77;;;;;;;;;;5120127;28;20229;-96
2021/12/22 03:16:27;;;;;;;81.90;16.73;;;;;;;;;;5120362;28;20227;-96
2021/12/22 03:18:54;;;;;;;81.45;16.48;;;;;;;;;;5103429;28;20218;-96
2021/12/22 03:21:22;;;;;;;81.20;17.20;;;;;;;;;;5103869;28;20217;-96
2021/12/22 03:23:53;;;;;;;81.13;16.85;;;;;;;;;;5118391;28;20203;-96
2021/12/22 03:26:22;;;;;;;80.50;16.77;;;;;;;;;;5119751;28;20253;-96
2021/12/22 03:28:50;;;;;;;80.28;16.00;;;;;;;;;;5101961;28;20198;-96
2021/12/22 03:31:17;;;;;;;80.63;16.13;;;;;;;;;;5119839;28;20200;-96
2021/12/22 03:33:45;;;;;;;85.18;17.20;;;;;;;;;;5104420;28;20247;-96
2021/12/22 03:36:12;;;;;;;81.85;16.35;;;;;;;;;;5119156;28;20632;-96
2021/12/22 03:38:42;;;;;;;79.70;16.38;;;;;;;;;;5120838;28;20264;-96
2021/12/22 03:41:12;;;;;;;80.50;16.80;;;;;;;;;;5117149;28;20198;-96
2021/12/22 03:43:39;;;;;;;76.07;15.93;;;;;;;;;;5119648;28;20206;-96
2021/12/22 03:46:06;;;;;;;76.35;16.27;;;;;;;;;;5118681;28;20188;-96
2021/12/22 03:48:32;;;;;;;76.65;16.38;;;;;;;;;;5122035;28;20230;-96
2021/12/22 03:50:59;;;;;;;80.28;16.65;;;;;;;;;;5117794;28;20614;-96
2021/12/22 03:53:26;;;;;;;77.72;16.95;;;;;;;;;;5112055;28;20251;-96
2021/12/22 03:55:52;;;;;;;86.18;17.80;;;;;;;;;;5111571;28;20205;-96
2021/12/22 03:58:21;;;;;;;78.15;17.63;;;;;;;;;;5111861;28;20200;-96
2021/12/22 04:00:56;;;;;;;77.65;17.10;;;;;;;;;;5094470;28;20193;-96
2021/12/22 04:03:26;;;;;;;80.28;17.40;;;;;;;;;;5112022;28;20195;-96
2021/12/22 04:05:53;;;;;;;78.20;16.05;;;;;;;;;;5112281;28;20208;-96
2021/12/22 04:08:20;;;;;;;79.97;17.40;;;;;;;;;;5110969;28;20187;-96
2021/12/22 04:10:47;;;;;;;78.70;17.20;;;;;;;;;;5111832;28;20189;-96
2021/12/22 04:13:14;;;;;;;79.25;17.15;;;;;;;;;;5112077;28;20224;-96
2021/12/22 04:15:44;;;;;;;80.18;17.70;;;;;;;;;;5112198;28;20287;-96
2021/12/22 04:18:11;;;;;;;75.60;16.27;;;;;;;;;;5111906;28;20220;-95
2021/12/22 04:20:37;;;;;;;78.90;17.02;;;;;;;;;;5111818;28;20205;-95
2021/12/22 04:23:04;;;;;;;76.43;16.13;;;;;;;;;;5111056;28;20205;-96
2021/12/22 04:25:31;;;;;;;76.22;16.45;;;;;;;;;;5110108;28;20200;-96
2021/12/22 04:28:03;;;;;;;78.22;16.90;;;;;;;;;;5092068;28;20275;-96
2021/12/22 04:30:29;;;;;;;78.30;16.63;;;;;;;;;;5110841;28;20206;-96
2021/12/22 04:32:57;;;;;;;81.03;17.55;;;;;;;;;;5110329;28;20218;-96
2021/12/22 04:35:24;;;;;;;79.60;17.33;;;;;;;;;;5110101;28;20192;-96
2021/12/22 04:37:51;;;;;;;76.68;16.10;;;;;;;;;;5109891;28;20202;-95
2021/12/22 04:40:18;;;;;;;83.28;17.23;;;;;;;;;;5107898;28;20202;-95
2021/12/22 04:42:44;;;;;;;82.22;18.58;;;;;;;;;;5089772;28;20662;-96
2021/12/22 04:45:11;;;;;;;80.90;18.42;;;;;;;;;;5109420;28;20200;-95
2021/12/22 04:47:38;;;;;;;80.35;17.30;;;;;;;;;;5108215;28;20235;-96
2021/12/22 04:50:11;;;;;;;88.63;17.80;;;;;;;;;;5114584;28;20183;-96
2021/12/22 04:52:43;;;;;;;81.43;16.85;;;;;;;;;;5109761;28;20196;-96
2021/12/22 04:55:10;;;;;;;83.88;17.20;;;;;;;;;;5109322;28;20203;-95
2021/12/22 04:57:37;;;;;;;81.88;17.10;;;;;;;;;;5114647;28;20198;-96
2021/12/22 05:00:06;;;;;;;80.68;16.45;;;;;;;;;;5118791;28;20185;-96
2021/12/22 05:02:33;;;;;;;82.38;18.08;;;;;;;;;;5112928;28;20209;-95
2021/12/22 05:04:59;;;;;;;81.22;18.63;;;;;;;;;;5113886;28;20188;-95
2021/12/22 05:07:27;;;;;;;80.80;17.50;;;;;;;;;;5115918;28;20200;-95
2021/12/22 05:09:54;;;;;;;80.22;17.17;;;;;;;;;;5117187;28;20180;-96
2021/12/22 05:12:21;;;;;;;79.97;16.90;;;;;;;;;;5122866;28;20210;-95
2021/12/22 05:14:50;;;;;;;84.25;18.85;;;;;;;;;;5121807;28;20219;-95
2021/12/22 05:17:21;;;;;;;80.55;17.35;;;;;;;;;;5117553;28;20232;-96
2021/12/22 05:19:47;;;;;;;80.30;17.73;;;;;;;;;;5114472;28;20198;-94
2021/12/22 05:22:14;;;;;;;82.20;17.95;;;;;;;;;;5114883;28;20541;-95
2021/12/22 05:24:42;;;;;;;83.65;16.30;;;;;;;;;;5117489;28;20207;-95
2021/12/22 05:27:11;;;;;;;84.18;17.80;;;;;;;;;;5115047;28;20205;-96
2021/12/22 05:29:38;;;;;;;83.85;17.95;;;;;;;;;;5115217;28;20190;-96
2021/12/22 05:32:05;;;;;;;78.55;17.20;;;;;;;;;;5114523;28;20208;-96
2021/12/22 05:34:32;;;;;;;80.68;17.15;;;;;;;;;;5114473;28;21438;-96
2021/12/22 05:36:59;;;;;;;84.97;16.75;;;;;;;;;;5112936;28;20198;-96
2021/12/22 05:39:29;;;;;;;78.05;16.50;;;;;;;;;;5115443;28;20276;-96
2021/12/22 05:41:57;;;;;;;79.15;15.98;;;;;;;;;;5115051;28;20211;-96
2021/12/22 05:44:24;;;;;;;78.85;16.55;;;;;;;;;;5114321;28;21367;-95
2021/12/22 05:46:51;;;;;;;88.32;19.20;;;;;;;;;;5115230;28;20231;-96
2021/12/22 05:49:17;;;;;;;88.45;18.85;;;;;;;;;;5114512;28;20206;-96
2021/12/22 05:51:44;;;;;;;86.63;18.52;;;;;;;;;;5111842;28;20681;-96
2021/12/22 05:54:11;;;;;;;86.55;20.60;;;;;;;;;;5106838;28;20233;-96
2021/12/22 05:56:37;;;;;;;94.18;21.67;;;;;;;;;;5106447;28;20988;-96
2021/12/22 05:59:06;;;;;;;93.88;20.42;;;;;;;;;;5107483;28;21115;-96
2021/12/22 06:01:32;;;;;;;94.07;21.10;;;;;;;;;;5110037;28;20205;-96
2021/12/22 06:04:02;;;;;;;89.00;20.48;;;;;;;;;;5113083;28;20203;-96
2021/12/22 06:06:29;;;;;;;94.90;23.90;;;;;;;;;;5115609;28;20202;-96
2021/12/22 06:08:55;;;;;;;101.65;23.55;;;;;;;;;;5116579;28;20212;-96
2021/12/22 06:11:22;;;;;;;90.10;20.73;;;;;;;;;;5119824;28;20201;-96
2021/12/22 06:13:49;;;;;;;92.95;22.05;;;;;;;;;;5116754;28;20229;-96
2021/12/22 06:16:17;;;;;;;90.90;21.70;;;;;;;;;;5112598;28;20208;-96
2021/12/22 06:18:45;;;;;;;94.57;23.80;;;;;;;;;;5115983;28;20201;-96
2021/12/22 06:21:12;;;;;;;94.47;21.70;;;;;;;;;;5113852;28;20250;-96
2021/12/22 06:23:40;;;;;;;89.03;22.55;;;;;;;;;;5108808;28;20205;-96
2021/12/22 06:26:07;;;;;;;90.68;23.45;;;;;;;;;;5118176;28;20187;-96
2021/12/22 06:28:33;;;;;;;101.30;26.98;;;;;;;;;;5105082;28;20213;-95
2021/12/22 06:31:00;;;;;;;93.60;24.05;;;;;;;;;;5109801;28;20200;-96
2021/12/22 06:33:28;;;;;;;95.07;24.05;;;;;;;;;;5106330;28;20232;-95
2021/12/22 06:35:54;;;;;;;98.93;25.25;;;;;;;;;;5106848;28;20748;-95
2021/12/22 06:38:21;;;;;;;101.15;25.88;;;;;;;;;;5106749;28;20210;-94
2021/12/22 06:40:48;;;;;;;97.93;24.23;;;;;;;;;;5109131;28;20198;-95
2021/12/22 06:43:16;;;;;;;98.15;25.17;;;;;;;;;;5110422;28;20202;-96
2021/12/22 06:45:42;;;;;;;99.22;25.40;;;;;;;;;;5092969;28;20197;-95
2021/12/22 06:48:09;;;;;;;103.95;26.85;;;;;;;;;;5110674;28;20232;-96
2021/12/22 06:53:41;;;;;;;109.47;26.13;;;;;;;;;;5760432;22;20200;-96
2021/12/22 06:56:08;;;;;;;101.60;25.55;;;;;;;;;;5055230;28;20177;-96
2021/12/22 06:58:34;;;;;;;106.63;27.27;;;;;;;;;;5061483;28;20206;-96
2021/12/22 07:01:01;;;;;;;100.78;27.33;;;;;;;;;;5062258;28;20202;-96
2021/12/22 07:03:28;;;;;;;101.05;25.50;;;;;;;;;;5065504;28;20263;-96
2021/12/22 07:05:55;;;;;;;97.55;25.17;;;;;;;;;;5067231;28;20198;-96
2021/12/22 07:08:22;;;;;;;96.85;24.52;;;;;;;;;;5063365;28;20207;-96
2021/12/22 07:10:51;;;;;;;91.57;22.73;;;;;;;;;;5067790;28;20198;-96
2021/12/22 07:13:20;;;;;;;99.30;25.30;;;;;;;;;;5072449;28;20187;-96
2021/12/22 07:16:04;;;;;;;88.10;21.05;;;;;;;;;;5070862;28;20188;-96
2021/12/22 07:18:39;;;;;;;95.20;23.23;;;;;;;;;;5073471;28;20222;-96
2021/12/22 07:21:33;;;;;;;117.13;31.23;;;;;;;;;;5058467;28;20232;-96
2021/12/22 07:24:08;;;;;;;103.47;25.50;;;;;;;;;;5074968;28;20199;-96
2021/12/22 07:26:39;;;;;;;92.65;22.23;;;;;;;;;;5072397;28;20196;-96
2021/12/22 07:29:11;;;;;;;92.75;19.35;;;;;;;;;;5054895;28;20229;-96
2021/12/22 07:31:38;;;;;;;94.07;21.40;;;;;;;;;;5072440;28;20197;-96
2021/12/22 07:37:00;;;;;;;94.97;24.27;;;;;;;;;;5071319;28;20191;-96
2021/12/22 07:39:33;;;;;;;103.53;24.88;;;;;;;;;;5070497;28;20199;-96
2021/12/22 07:45:11;;;;;;;105.60;28.48;;;;;;;;;;5059761;28;20215;-96
2021/12/22 07:47:50;;;;;;;107.38;26.30;;;;;;;;;;5068739;28;20221;-96
2021/12/22 07:50:18;;;;;;;96.50;25.65;;;;;;;;;;5067910;28;20176;-96
2021/12/22 07:52:53;;;;;;;108.18;30.00;;;;;;;;;;5073612;28;20202;-96
2021/12/22 07:55:33;;;;;;;101.90;29.10;;;;;;;;;;5048644;28;20231;-96
2021/12/22 07:58:01;;;;;;;112.90;29.02;;;;;;;;;;5054781;28;20187;-96
2021/12/22 08:00:34;;;;;;;100.45;27.50;;;;;;;;;;5048621;28;20264;-96
2021/12/22 08:05:49;;;;;;;92.40;23.70;;;;;;;;;;5045690;28;20200;-95
2021/12/22 08:08:17;;;;;;;113.43;28.13;;;;;;;;;;5033632;28;20234;-96
2021/12/22 08:10:43;;;;;;;110.60;29.38;;;;;;;;;;5040596;28;20206;-96
2021/12/22 08:13:12;;;;;;;102.63;28.20;;;;;;;;;;5045705;28;20200;-96
2021/12/22 08:15:39;;;;;;;98.38;26.30;;;;;;;;;;5045571;28;20287;-96
2021/12/22 08:18:05;;;;;;;100.82;25.17;;;;;;;;;;5039961;28;20199;-94
2021/12/22 08:20:33;;;;;;;98.50;25.65;;;;;;;;;;5039982;28;20211;-95
2021/12/22 08:23:18;;;;;;;91.45;23.45;;;;;;;;;;5046761;28;20196;-96
2021/12/22 08:25:45;;;;;;;99.10;27.30;;;;;;;;;;5042154;28;20611;-96
2021/12/22 08:28:13;;;;;;;96.95;24.85;;;;;;;;;;5052280;28;20179;-96
2021/12/22 08:30:40;;;;;;;96.28;24.10;;;;;;;;;;5059473;28;20244;-96
2021/12/22 08:38:54;;;;;;;96.07;26.13;;;;;;;;;;5487756;22;20234;-96
2021/12/22 08:41:24;;;;;;;103.65;26.90;;;;;;;;;;5090443;28;20198;-96
2021/12/22 08:43:58;;;;;;;98.93;27.55;;;;;;;;;;5099741;28;20209;-96
2021/12/22 08:46:24;;;;;;;106.30;26.15;;;;;;;;;;5104257;28;20443;-96
2021/12/22 08:52:06;;;;;;;102.78;26.40;;;;;;;;;;5095326;28;20197;-96
2021/12/22 08:54:36;;;;;;;113.03;31.13;;;;;;;;;;5091337;28;20240;-96
2021/12/22 08:57:04;;;;;;;110.05;32.35;;;;;;;;;;5100087;28;20183;-96
2021/12/22 08:59:32;;;;;;;104.68;29.77;;;;;;;;;;5099037;28;20199;-94
2021/12/22 09:02:21;;;;;;;89.82;21.92;;;;;;;;;;5096873;28;20185;-96
2021/12/22 09:04:51;;;;;;;91.75;23.65;;;;;;;;;;5085951;28;20225;-96
2021/12/22 09:07:17;;;;;;;86.13;20.98;;;;;;;;;;5083083;28;20262;-96
2021/12/22 09:09:44;;;;;;;82.90;20.08;;;;;;;;;;5083224;28;20220;-96
2021/12/22 09:12:11;;;;;;;83.55;19.92;;;;;;;;;;5083257;28;20266;-96
2021/12/22 09:14:39;;;;;;;95.10;23.85;;;;;;;;;;5081059;28;20231;-96
2021/12/22 09:17:05;;;;;;;89.43;22.40;;;;;;;;;;5081354;28;20172;-95
2021/12/22 09:19:32;;;;;;;83.30;20.00;;;;;;;;;;5080253;28;20215;-93
2021/12/22 09:21:58;;;;;;;92.20;22.88;;;;;;;;;;5074295;28;20558;-93
2021/12/22 09:24:25;;;;;;;84.70;21.30;;;;;;;;;;5074489;28;20052;-94
2021/12/22 09:26:51;;;;;;;82.65;20.00;;;;;;;;;;5075032;28;20037;-94
2021/12/22 09:29:17;;;;;;;;;;;;;;;;;;5077265;28;20276;-95
2021/12/22 09:31:44;;;;;;;;;;;;;;;;;;5077184;28;19994;-95
2021/12/22 09:34:10;;;;;;;;;;;;;;;;;;5075493;28;19928;-94
2021/12/22 09:36:36;;;;;;;;;;;;;;;;;;5075066;28;19974;-95
2021/12/22 09:39:02;;;;;;;;;;;;;;;;;;5075268;28;19920;-94
2021/12/22 09:41:29;;;;;;;;;;;;;;;;;;5075548;28;19946;-94
2021/12/22 09:43:56;;;;;;;;;;;;;;;;;;5075372;28;19920;-95
2021/12/22 09:46:24;;;;;;;;;;;;;;;;;;5074919;28;19927;-96
2021/12/22 09:48:57;;;;;;;;;;;;;;;;;;5075453;28;19979;-95
2021/12/22 09:54:08;;;;;;;;;;;;;;;;;;5065950;28;19996;-96
2021/12/22 09:56:34;;;;;;;;;;;;;;;;;;5065179;28;19989;-96
2021/12/22 09:59:00;;;;;;;;;;;;;;;;;;5065021;28;20454;-96
2021/12/22 10:01:27;;;;;;;;;;;;;;;;;;5066304;28;19932;-94
2021/12/22 10:03:53;;;;;;;;;;;;;;;;;;5086391;28;19928;-96
2021/12/22 10:06:20;;;;;;;;;;;;;;;;;;5087498;28;19951;-96
2021/12/22 10:08:46;;;;;;;;;;;;;;;;;;5086582;28;19920;-95
2021/12/22 10:11:12;;;;;;;;;;;;;;;;;;5084878;28;19927;-96
2021/12/22 10:13:39;;;;;;;;;;;;;;;;;;5085483;28;19920;-96
2021/12/22 10:16:05;;;;;;;;;;;;;;;;;;5084992;28;19928;-96
2021/12/22 10:18:31;;;;;;;;;;;;;;;;;;5079673;28;19920;-96
2021/12/22 10:20:58;;;;;;;;;;;;;;;;;;5064630;28;19929;-96
2021/12/22 10:23:24;;;;;;;;;;;;;;;;;;5064823;28;19921;-94
2021/12/22 10:25:50;;;;;;;;;;;;;;;;;;5065900;28;19932;-93
2021/12/22 10:28:19;;;;;;;;;;;;;;;;;;5065710;28;19933;-96
2021/12/22 10:30:45;;;;;;;;;;;;;;;;;;5064551;28;19920;-94
2021/12/22 10:33:11;;;;;;;;;;;;;;;;;;5076754;28;19984;-95
2021/12/22 10:35:38;;;;;;;;;;;;;;;;;;5085513;28;19943;-94
2021/12/22 10:38:05;;;;;;;;;;;;;;;;;;5086100;28;19943;-96
2021/12/22 10:40:31;;;;;;;;;;;;;;;;;;5085880;28;19921;-95
2021/12/22 10:42:57;;;;;;;;;;;;;;;;;;5086114;28;19920;-95
2021/12/22 10:45:23;;;;;;;;;;;;;;;;;;5085835;28;19942;-96
2021/12/22 10:50:34;;;;;;;;;;;;;;;;;;5069329;28;19919;-96
2021/12/22 10:53:00;;;;;;;;;;;;;;;;;;5066978;28;19925;-95
2021/12/22 10:55:26;;;;;;;;;;;;;;;;;;5060584;28;20611;-95
2021/12/22 10:57:52;;;;;;;;;;;;;;;;;;5065645;28;19921;-95
2021/12/22 11:00:19;;;;;;;;;;;;;;;;;;5065670;28;19921;-94
2021/12/22 11:02:50;;;;;;;;;;;;;;;;;;5065438;28;19921;-95
2021/12/22 11:05:16;;;;;;;;;;;;;;;;;;5064764;28;20365;-94
2021/12/22 11:07:43;;;;;;;;;;;;;;;;;;5069163;28;19920;-95
2021/12/22 11:10:09;;;;;;;;;;;;;;;;;;5080697;28;19928;-96
2021/12/22 11:12:36;;;;;;;;;;;;;;;;;;5085870;28;19920;-96
2021/12/22 11:15:02;;;;;;;;;;;;;;;;;;5086048;28;19942;-96
2021/12/22 11:17:29;;;;;;;;;;;;;;;;;;5085054;28;19924;-95
2021/12/22 11:19:58;;;;;;;;;;;;;;;;;;5068756;28;19921;-96
2021/12/22 11:22:36;;;;;;;;;;;;;;;;;;5067971;28;19948;-95
2021/12/22 11:25:02;;;;;;;;;;;;;;;;;;5085454;28;19924;-95
2021/12/22 11:27:28;;;;;;;;;;;;;;;;;;5085343;28;19924;-94
2021/12/22 11:29:55;;;;;;;;;;;;;;;;;;5084788;28;19987;-95
2021/12/22 11:32:21;;;;;;;;;;;;;;;;;;5084798;28;19950;-96
2021/12/22 11:34:47;;;;;;;;;;;;;;;;;;5085798;28;19927;-96
2021/12/22 11:37:14;;;;;;;;;;;;;;;;;;5086319;28;19931;-96
2021/12/22 11:39:41;;;;;;;;;;;;;;;;;;5066580;28;19942;-96
2021/12/22 11:42:08;;;;;;;;;;;;;;;;;;5083519;28;20361;-96
2021/12/22 11:44:34;;;;;;;;;;;;;;;;;;5085477;28;19928;-96
2021/12/22 11:47:01;;;;;;;;;;;;;;;;;;5085390;28;19931;-96
2021/12/22 11:49:27;;;;;;;;;;;;;;;;;;5084200;28;19921;-96
2021/12/22 11:51:53;;;;;;;;;;;;;;;;;;5083118;28;19927;-96
2021/12/22 11:54:25;;;;;;;;;;;;;;;;;;5068060;28;19920;-96
2021/12/22 11:56:52;;;;;;;;;;;;;;;;;;5067354;28;19967;-96
2021/12/22 11:59:18;;;;;;;;;;;;;;;;;;5066459;28;19921;-95
2021/12/22 12:01:44;;;;;;;;;;;;;;;;;;5067613;28;19920;-96
2021/12/22 12:04:11;;;;;;;;;;;;;;;;;;5072141;28;19905;-96
2021/12/22 12:06:38;;;;;;;;;;;;;;;;;;5066937;28;20111;-96
2021/12/22 12:09:13;;;;;;;;;;;;;;;;;;5065459;22;19956;-96
2021/12/22 12:11:44;;;;;;;;;;;;;;;;;;5051779;28;19953;-96
2021/12/22 12:14:20;;;;;;;;;;;;;;;;;;5051195;28;19921;-95
2021/12/22 12:22:16;;;;;;;;;;;;;;;;;;5028301;28;19921;-96
2021/12/22 12:24:43;;;;;;;;;;;;;;;;;;5068354;28;19928;-96
2021/12/22 12:27:17;;;;;;;;;;;;;;;;;;5069330;22;19921;-96
2021/12/22 12:29:55;;;;;;;;;;;;;;;;;;5069351;28;19909;-96
2021/12/22 12:33:03;;;;;;;;;;;;;;;;;;5069021;28;19925;-96
2021/12/22 12:38:12;;;;;;;;;;;;;;;;;;5035841;28;19921;-96
2021/12/22 12:40:38;;;;;;;;;;;;;;;;;;5073636;28;19921;-96
2021/12/22 12:43:05;;;;;;;;;;;;;;;;;;5068834;28;19962;-96
2021/12/22 12:45:32;;;;;;;;;;;;;;;;;;5070402;28;19925;-96
2021/12/22 12:47:58;;;;;;;;;;;;;;;;;;5070028;28;19920;-96
2021/12/22 12:50:28;;;;;;;;;;;;;;;;;;5052708;28;19905;-96
2021/12/22 12:52:54;;;;;;;;;;;;;;;;;;5033635;28;19920;-96
2021/12/22 12:58:01;;;;;;;;;;;;;;;;;;5047589;28;19964;-96
2021/12/22 13:00:27;;;;;;;;;;;;;;;;;;5044580;28;19928;-96
2021/12/22 13:02:53;;;;;;;;;;;;;;;;;;5048489;28;19905;-95
2021/12/22 13:05:20;;;;;;;;;;;;;;;;;;5072445;22;19934;-96
2021/12/22 13:07:46;;;;;;;;;;;;;;;;;;5070167;28;19920;-95
2021/12/22 13:10:15;;;;;;;;;;;;;;;;;;5067408;28;19921;-94
2021/12/22 13:13:00;;;;;;;;;;;;;;;;;;5070460;28;19920;-94
2021/12/22 13:23:40;;;;;;;;;;;;;;;;;;5092397;28;19943;-96
2021/12/22 13:26:13;;;;;;;;;;;;;;;;;;5092933;28;19927;-96
2021/12/22 13:28:45;;;;;;;;;;;;;;;;;;5098873;28;19921;-96
2021/12/22 13:31:12;;;;;;;;;;;;;;;;;;5098415;28;19992;-96
2021/12/22 13:36:26;;;;;;;;;;;;;;;;;;5097529;28;19908;-96
2021/12/22 13:38:56;;;;;;;;;;;;;;;;;;5089841;28;19920;-95
2021/12/22 13:41:22;;;;;;;;;;;;;;;;;;5088581;28;19927;-95
2021/12/22 13:43:48;;;;;;;;;;;;;;;;;;5080180;28;19920;-96
2021/12/22 13:46:14;;;;;;;;;;;;;;;;;;5083620;28;19951;-94
2021/12/22 13:48:41;;;;;;;;;;;;;;;;;;5086232;28;20049;-96
2021/12/22 13:51:07;;;;;;;;;;;;;;;;;;5084357;28;19920;-94
2021/12/22 13:53:33;;;;;;;;;;;;;;;;;;5078300;28;19924;-94
2021/12/22 13:55:59;;;;;;;;;;;;;;;;;;5080025;28;19982;-96
2021/12/22 13:58:26;;;;;;;;;;;;;;;;;;5079219;28;19927;-95
2021/12/22 14:00:52;;;;;;;;;;;;;;;;;;5082734;28;19946;-96
2021/12/22 14:03:19;;;;;;;;;;;;;;;;;;5093413;28;19926;-96
2021/12/22 14:08:26;;;;;;;;;;;;;;;;;;5093271;28;19963;-96
2021/12/22 14:16:16;;;;;;;;;;;;;;;;;;5097993;28;19928;-96
2021/12/22 14:18:43;;;;;;;;;;;;;;;;;;5081775;28;19920;-96
2021/12/22 14:21:15;;;;;;;;;;;;;;;;;;5096934;28;19927;-96
2021/12/22 14:23:41;;;;;;;;;;;;;;;;;;5093764;28;19992;-94
2021/12/22 14:26:09;;;;;;;;;;;;;;;;;;5082923;28;19924;-94
2021/12/22 14:28:36;;;;;;;;;;;;;;;;;;5078518;28;19920;-96
2021/12/22 14:31:02;;;;;;;;;;;;;;;;;;5072777;28;19920;-95
2021/12/22 14:33:31;;;;;;;;;;;;;;;;;;5087502;28;19920;-95
2021/12/22 14:35:58;;;;;;;;;;;;;;;;;;5086099;28;19927;-96
2021/12/22 14:38:27;;;;;;;;;;;;;;;;;;5084879;28;19920;-95
2021/12/22 14:40:53;;;;;;;;;;;;;;;;;;5065882;28;19927;-96
2021/12/22 14:43:22;;;;;;;;;;;;;;;;;;5065880;28;19976;-96
2021/12/22 14:45:49;;;;;;;;;;;;;;;;;;5086689;28;19985;-95
2021/12/22 14:48:15;;;;;;;;;;;;;;;;;;5087643;28;20526;-95
2021/12/22 14:50:41;;;;;;;;;;;;;;;;;;5093261;28;20482;-94
2021/12/22 14:53:09;;;;;;;;;;;;;;;;;;5093383;28;19920;-96
2021/12/22 14:55:35;;;;;;;;;;;;;;;;;;5090220;28;19920;-96
2021/12/22 14:58:02;;;;;;;;;;;;;;;;;;5084784;28;19920;-95
2021/12/22 15:00:28;;;;;;;;;;;;;;;;;;5067853;28;20596;-95
2021/12/22 15:02:54;;;;;;;;;;;;;;;;;;5066180;28;19924;-96
2021/12/22 15:05:21;;;;;;;;;;;;;;;;;;5080867;28;19921;-96
2021/12/22 15:07:49;;;;;;;;;;;;;;;;;;5091720;28;19920;-96
2021/12/22 15:15:55;;;;;;;;;;;;;;;;;;5076700;22;19927;-96
2021/12/22 15:18:23;;;;;;;87.65;18.77;;;;;;;;;;5093692;28;20671;-96
2021/12/22 15:20:50;;;;;;;101.72;24.83;;;;;;;;;;5092987;28;20191;-96
2021/12/22 15:23:17;;;;;;;89.10;21.45;;;;;;;;;;5092603;28;20439;-96
2021/12/22 15:25:44;;;;;;;89.90;23.02;;;;;;;;;;5084643;28;20285;-96
2021/12/22 15:28:12;;;;;;;98.47;22.92;;;;;;;;;;5058838;28;20198;-96
2021/12/22 15:30:39;;;;;;;103.75;23.73;;;;;;;;;;5081117;28;20194;-96
2021/12/22 15:33:09;;;;;;;100.03;24.65;;;;;;;;;;5076339;28;20198;-96
2021/12/22 15:35:38;;;;;;;99.68;27.75;;;;;;;;;;5084514;28;20190;-96
2021/12/22 15:38:17;;;;;;;91.15;25.00;;;;;;;;;;5069280;28;20200;-96
2021/12/22 15:41:05;;;;;;;108.72;28.75;;;;;;;;;;5088913;28;20191;-96
2021/12/22 15:43:31;;;;;;;98.93;27.80;;;;;;;;;;5079676;28;20265;-96
2021/12/22 15:45:58;;;;;;;115.68;32.03;;;;;;;;;;5086253;28;20282;-96
2021/12/22 15:48:25;;;;;;;117.80;31.45;;;;;;;;;;5085790;28;20206;-96
2021/12/22 15:53:57;;;;;;;109.20;27.63;;;;;;;;;;5054248;28;20199;-96
2021/12/22 15:56:26;;;;;;;109.00;26.30;;;;;;;;;;5080874;28;20224;-96
2021/12/22 15:58:58;;;;;;;111.90;29.23;;;;;;;;;;5061124;28;20187;-96
2021/12/22 16:01:37;;;;;;;100.03;27.27;;;;;;;;;;5088385;28;20205;-96
2021/12/22 16:09:47;;;;;;;108.53;25.80;;;;;;;;;;5896158;22;20297;-96
2021/12/22 16:12:14;;;;;;;116.55;32.40;;;;;;;;;;5085700;28;20289;-96
2021/12/22 16:14:41;;;;;;;120.70;36.78;;;;;;;;;;5086641;28;20218;-96
2021/12/22 16:17:21;;;;;;;108.57;31.20;;;;;;;;;;5070020;28;20256;-96
2021/12/22 16:19:49;;;;;;;110.70;32.58;;;;;;;;;;5083136;28;20295;-96
2021/12/22 16:22:16;;;;;;;104.10;30.77;;;;;;;;;;5067642;28;20246;-96